Time;durP1;ratioP1;P1;durP2;ratioP2;P2;SDS_P1;SDS_P2;PMS_P1;PMS_P2;Temp;Humidity;BMP_temperature;BMP_pressure;BME280_temperature;BME280_humidity;BME280_pressure;Samples;Min_cycle;Max_cycle;Signal;HPM_P1;HPM_P2
2022/01/19 00:02:17;;;;;;;41.45;20.20;;;6.60;99.90;;;;;;5010700;28;20137;-42
2022/01/19 00:04:42;;;;;;;41.58;20.88;;;6.60;99.90;;;;;;5010679;28;20556;-43
2022/01/19 00:07:08;;;;;;;39.08;21.33;;;6.60;99.90;;;;;;5010758;28;20022;-42
2022/01/19 00:09:33;;;;;;;38.25;19.48;;;6.60;99.90;;;;;;5009764;28;20034;-44
2022/01/19 00:11:59;;;;;;;35.63;20.50;;;6.60;99.90;;;;;;5010085;28;20022;-42
2022/01/19 00:14:24;;;;;;;38.42;19.67;;;6.60;99.90;;;;;;5010124;28;20088;-44
2022/01/19 00:16:50;;;;;;;34.83;18.52;;;6.60;99.90;;;;;;5010225;28;20018;-43
2022/01/19 00:19:15;;;;;;;37.33;19.63;;;6.60;99.90;;;;;;5010758;28;20022;-43
2022/01/19 00:21:41;;;;;;;38.60;19.95;;;6.60;99.90;;;;;;5009857;28;20022;-43
2022/01/19 00:24:06;;;;;;;36.38;19.05;;;6.60;99.90;;;;;;5010255;28;20099;-43
2022/01/19 00:26:32;;;;;;;38.63;20.88;;;6.60;99.90;;;;;;5010204;28;20087;-43
2022/01/19 00:28:59;;;;;;;36.63;19.85;;;6.60;99.90;;;;;;5010002;28;20072;-44
2022/01/19 00:31:24;;;;;;;32.60;19.27;;;6.60;99.90;;;;;;5010067;28;20053;-43
2022/01/19 00:33:50;;;;;;;35.13;18.48;;;6.60;99.90;;;;;;5010290;28;20076;-43
2022/01/19 00:36:15;;;;;;;33.28;17.65;;;6.60;99.90;;;;;;5008106;28;20056;-43
2022/01/19 00:38:41;;;;;;;36.47;19.80;;;6.60;99.90;;;;;;5008716;28;20022;-43
2022/01/19 00:41:06;;;;;;;38.22;19.33;;;6.60;99.90;;;;;;5009675;28;20026;-43
2022/01/19 00:43:35;;;;;;;34.28;18.38;;;6.60;99.90;;;;;;5009048;28;20065;-43
2022/01/19 00:46:01;;;;;;;33.85;18.70;;;6.60;99.90;;;;;;5009724;28;20037;-44
2022/01/19 00:48:27;;;;;;;25.17;15.85;;;6.60;99.90;;;;;;4998778;28;20057;-43
2022/01/19 00:50:53;;;;;;;31.52;17.80;;;6.60;99.90;;;;;;5009085;28;20057;-42
2022/01/19 00:53:19;;;;;;;36.05;19.77;;;6.60;99.90;;;;;;5010299;28;20068;-43
2022/01/19 00:55:44;;;;;;;34.50;18.48;;;6.60;99.90;;;;;;5009530;28;20448;-42
2022/01/19 00:58:10;;;;;;;37.92;19.35;;;6.60;99.90;;;;;;5008787;28;20408;-42
2022/01/19 01:00:35;;;;;;;31.70;18.65;;;6.60;99.90;;;;;;5009796;28;20026;-43
2022/01/19 01:03:02;;;;;;;33.45;18.10;;;6.60;99.90;;;;;;5009353;28;20076;-43
2022/01/19 01:05:29;;;;;;;28.50;16.85;;;6.60;99.90;;;;;;5008704;28;20482;-43
2022/01/19 01:07:54;;;;;;;31.35;18.20;;;6.60;99.90;;;;;;5009255;28;20077;-43
2022/01/19 01:10:21;;;;;;;34.38;17.85;;;6.60;99.90;;;;;;5009952;28;20021;-43
2022/01/19 01:12:50;;;;;;;31.90;18.40;;;6.50;99.90;;;;;;5007872;28;20642;-43
2022/01/19 01:15:29;;;;;;;29.05;16.77;;;6.40;99.90;;;;;;5009751;28;20065;-43
2022/01/19 01:20:33;;;;;;;33.08;17.15;;;6.10;99.90;;;;;;5009388;28;20038;-43
2022/01/19 01:22:59;;;;;;;30.77;17.42;;;6.00;99.90;;;;;;5008764;28;20029;-42
2022/01/19 01:25:25;;;;;;;31.35;17.13;;;5.80;99.90;;;;;;5008603;28;20080;-43
2022/01/19 01:27:51;;;;;;;33.78;17.75;;;5.70;99.90;;;;;;5008736;28;20477;-43
2022/01/19 01:30:16;;;;;;;32.53;18.27;;;5.60;99.90;;;;;;5009637;28;20026;-43
2022/01/19 01:32:42;;;;;;;32.72;17.98;;;5.60;99.90;;;;;;5008384;28;20018;-42
2022/01/19 01:35:09;;;;;;;30.85;16.75;;;5.50;99.90;;;;;;5009281;28;20121;-44
2022/01/19 01:37:35;;;;;;;33.40;17.65;;;5.40;99.90;;;;;;5008946;28;20109;-44
2022/01/19 01:40:01;;;;;;;32.95;16.80;;;5.40;99.90;;;;;;5008022;28;20100;-43
2022/01/19 01:42:27;;;;;;;29.33;17.92;;;5.30;99.90;;;;;;5009070;28;20029;-43
2022/01/19 01:44:56;;;;;;;30.52;17.58;;;5.20;99.90;;;;;;5008672;28;20194;-42
2022/01/19 01:47:23;;;;;;;32.50;18.48;;;5.20;99.90;;;;;;5008067;28;20368;-43
2022/01/19 01:55:17;;;;;;;32.55;17.05;;;5.10;99.90;;;;;;5007722;28;20405;-43
2022/01/19 01:57:43;;;;;;;32.83;18.27;;;5.10;99.90;;;;;;5009024;28;20094;-42
2022/01/19 02:00:12;;;;;;;30.85;17.67;;;5.00;99.90;;;;;;5007501;28;20165;-44
2022/01/19 02:02:39;;;;;;;30.83;16.55;;;4.90;99.90;;;;;;5008337;28;20042;-44
2022/01/19 02:05:09;;;;;;;32.00;17.90;;;4.90;99.90;;;;;;5008050;28;20025;-43
2022/01/19 02:07:46;;;;;;;36.28;18.60;;;4.90;99.90;;;;;;5007922;28;20076;-43
2022/01/19 02:10:30;;;;;;;30.30;16.17;;;4.90;99.90;;;;;;5008332;28;20684;-43
2022/01/19 02:15:51;;;;;;;33.20;17.75;;;5.00;99.90;;;;;;5007281;28;20033;-43
2022/01/19 02:23:49;;;;;;;36.63;19.17;;;5.10;99.90;;;;;;5007945;28;20476;-43
2022/01/19 02:26:23;;;;;;;32.83;18.33;;;5.20;99.90;;;;;;5008356;28;20021;-43
2022/01/19 02:42:38;;;;;;;40.50;17.48;;;5.30;99.90;;;;;;4998077;28;20111;-43
2022/01/19 02:50:15;;;;;;;37.83;20.80;;;5.20;99.90;;;;;;5006897;28;20048;-42
2022/01/19 02:52:40;;;;;;;34.92;20.85;;;5.20;99.90;;;;;;5007831;28;20026;-43
2022/01/19 02:55:06;;;;;;;35.38;18.92;;;5.10;99.90;;;;;;5007211;28;20077;-43
2022/01/19 02:57:35;;;;;;;33.40;17.90;;;5.10;99.90;;;;;;5006734;28;20026;-45
2022/01/19 03:08:42;;;;;;;33.47;18.00;;;5.00;99.90;;;;;;5007160;28;20026;-43
2022/01/19 03:10:58;;;;;;;31.23;18.25;;;4.60;99.90;;;;;;5006641;28;20127;-41
2022/01/19 03:13:24;;;;;;;32.47;18.25;;;4.50;99.90;;;;;;5007310;28;20548;-43
2022/01/19 03:15:49;;;;;;;30.98;17.75;;;4.50;99.90;;;;;;5006749;28;20018;-44
2022/01/19 03:18:15;;;;;;;31.60;16.20;;;4.50;99.90;;;;;;5006987;28;20029;-43
2022/01/19 03:20:41;;;;;;;31.40;17.15;;;4.40;99.90;;;;;;5007219;28;20026;-43
2022/01/19 03:23:18;;;;;;;36.55;17.75;;;4.30;99.90;;;;;;5007278;28;20116;-44
2022/01/19 03:25:44;;;;;;;30.85;16.88;;;4.30;99.90;;;;;;5007040;28;20026;-43
2022/01/19 03:28:09;;;;;;;26.52;16.05;;;4.30;99.90;;;;;;5006367;28;20064;-44
2022/01/19 03:30:35;;;;;;;28.95;17.00;;;4.20;99.90;;;;;;5007376;28;20042;-43
2022/01/19 03:33:01;;;;;;;31.25;17.25;;;4.10;99.90;;;;;;5006356;28;20512;-43
2022/01/19 03:35:27;;;;;;;32.75;17.52;;;4.10;99.90;;;;;;5007120;28;20084;-42
2022/01/19 03:37:52;;;;;;;28.75;16.55;;;4.10;99.90;;;;;;5005696;28;20477;-44
2022/01/19 03:40:18;;;;;;;29.92;16.75;;;4.10;99.90;;;;;;5004880;28;20064;-43
2022/01/19 03:42:43;;;;;;;31.73;16.05;;;4.10;99.90;;;;;;5006710;28;20221;-43
2022/01/19 03:45:10;;;;;;;31.42;17.63;;;4.10;99.90;;;;;;5007151;28;20038;-43
2022/01/19 03:47:41;;;;;;;31.05;16.50;;;4.00;99.90;;;;;;5005983;28;20026;-44
2022/01/19 03:50:08;;;;;;;32.70;17.42;;;4.00;99.90;;;;;;5006946;28;20532;-43
2022/01/19 03:52:34;;;;;;;30.20;17.20;;;4.00;99.90;;;;;;5005794;28;20022;-42
2022/01/19 03:55:00;;;;;;;30.63;17.35;;;4.00;99.90;;;;;;5007045;28;20136;-43
2022/01/19 03:57:25;;;;;;;32.50;17.98;;;4.00;99.90;;;;;;5006805;28;20116;-43
2022/01/19 03:59:51;;;;;;;29.45;16.48;;;4.00;99.90;;;;;;5006434;28;20026;-43
2022/01/19 04:02:17;;;;;;;28.30;16.30;;;4.00;99.90;;;;;;5007202;28;20036;-42
2022/01/19 04:04:52;;;;;;;26.58;15.82;;;3.90;99.90;;;;;;5006646;28;20026;-44
2022/01/19 04:07:18;;;;;;;28.35;15.63;;;3.90;99.90;;;;;;5006490;28;20026;-44
2022/01/19 04:09:45;;;;;;;28.50;15.88;;;3.90;99.90;;;;;;5006524;28;20017;-43
2022/01/19 04:12:18;;;;;;;24.10;14.52;;;3.80;99.90;;;;;;5011073;28;20045;-44
2022/01/19 04:14:44;;;;;;;23.33;14.05;;;3.80;99.90;;;;;;5009640;28;20108;-44
2022/01/19 04:17:14;;;;;;;29.95;15.88;;;3.70;99.90;;;;;;5010029;28;20030;-43
2022/01/19 04:22:07;;;;;;;24.20;14.13;;;3.70;99.90;;;;;;5009494;28;20030;-44
2022/01/19 04:24:33;;;;;;;24.27;14.35;;;3.70;99.90;;;;;;5010049;28;20096;-42
2022/01/19 04:32:32;;;;;;;28.27;15.07;;;3.70;99.90;;;;;;4990940;28;20034;-41
2022/01/19 04:35:02;;;;;;;23.60;14.05;;;3.60;99.90;;;;;;5005713;28;20030;-43
2022/01/19 04:37:39;;;;;;;25.23;13.80;;;3.60;99.90;;;;;;5009989;28;20105;-43
2022/01/19 04:48:38;;;;;;;23.98;13.27;;;3.50;99.90;;;;;;5010016;28;20037;-43
2022/01/19 05:04:53;;;;;;;22.58;13.45;;;3.40;99.90;;;;;;5008119;28;20144;-43
2022/01/19 05:07:25;;;;;;;21.13;12.35;;;3.40;99.90;;;;;;5009707;28;20022;-43
2022/01/19 05:15:01;;;;;;;24.25;13.82;;;3.40;99.90;;;;;;5009382;28;20037;-43
2022/01/19 05:17:30;;;;;;;22.65;14.52;;;3.40;99.90;;;;;;4997617;28;20179;-44
2022/01/19 05:19:55;;;;;;;22.67;14.25;;;3.50;99.90;;;;;;5009269;28;20061;-44
2022/01/19 05:22:21;;;;;;;24.67;15.07;;;3.50;99.90;;;;;;5009148;28;20033;-42
2022/01/19 05:24:46;;;;;;;23.50;14.48;;;3.60;99.90;;;;;;5007821;28;20058;-43
2022/01/19 05:27:12;;;;;;;23.88;13.68;;;3.70;99.90;;;;;;5009185;28;20104;-43
2022/01/19 05:29:37;;;;;;;26.25;13.82;;;3.80;99.90;;;;;;5009082;28;20028;-43
2022/01/19 05:32:04;;;;;;;21.17;13.82;;;3.80;99.90;;;;;;5007993;28;20120;-43
2022/01/19 05:34:29;;;;;;;22.23;12.95;;;3.90;99.90;;;;;;5008803;28;20493;-43
2022/01/19 05:36:55;;;;;;;22.70;13.30;;;3.90;99.90;;;;;;5008614;28;20080;-44
2022/01/19 05:39:20;;;;;;;21.00;13.73;;;4.00;99.90;;;;;;5008379;28;20026;-43
2022/01/19 05:41:46;;;;;;;23.27;13.88;;;4.00;99.90;;;;;;5008113;28;20014;-43
2022/01/19 05:44:11;;;;;;;23.38;14.50;;;4.00;99.90;;;;;;5008609;28;20603;-42
2022/01/19 05:46:37;;;;;;;22.35;14.75;;;4.00;99.90;;;;;;5007605;28;20033;-43
2022/01/19 05:49:03;;;;;;;21.25;13.55;;;4.00;99.90;;;;;;5009030;28;20028;-44
2022/01/19 05:51:28;;;;;;;23.40;14.15;;;4.00;99.90;;;;;;5008538;28;20088;-43
2022/01/19 05:53:54;;;;;;;23.90;14.50;;;4.10;99.90;;;;;;5007521;28;20409;-43
2022/01/19 05:56:19;;;;;;;22.67;14.45;;;4.10;99.90;;;;;;5008371;28;20903;-43
2022/01/19 05:58:45;;;;;;;21.40;14.32;;;4.10;99.90;;;;;;5008709;28;20060;-43
2022/01/19 06:01:10;;;;;;;25.27;14.27;;;4.20;99.90;;;;;;5007431;28;20022;-42
2022/01/19 06:03:36;;;;;;;21.10;14.65;;;4.20;99.90;;;;;;5008208;28;20033;-43
2022/01/19 06:06:01;;;;;;;21.75;15.00;;;4.20;99.90;;;;;;5007967;28;20100;-43
2022/01/19 06:10:55;;;;;;;20.65;13.25;;;4.20;99.90;;;;;;5008148;28;20038;-43
2022/01/19 06:13:22;;;;;;;22.20;14.88;;;4.20;99.90;;;;;;5007315;28;20125;-43
2022/01/19 06:15:49;;;;;;;24.65;14.98;;;4.20;99.90;;;;;;5008408;28;20018;-42
2022/01/19 06:18:16;;;;;;;22.75;15.77;;;4.20;99.90;;;;;;5007599;28;20022;-44
2022/01/19 06:20:43;;;;;;;24.67;17.15;;;4.20;99.90;;;;;;5007725;28;20038;-43
2022/01/19 06:23:08;;;;;;;25.73;15.77;;;4.20;99.90;;;;;;5007974;28;20034;-42
2022/01/19 06:25:34;;;;;;;24.77;15.82;;;4.20;99.90;;;;;;5008145;28;20024;-42
2022/01/19 06:28:00;;;;;;;24.27;16.40;;;4.20;99.90;;;;;;5007425;28;20108;-42
2022/01/19 06:30:25;;;;;;;23.63;15.57;;;4.20;99.90;;;;;;5007544;28;20014;-44
2022/01/19 06:32:51;;;;;;;26.80;16.98;;;4.20;99.90;;;;;;5007531;28;20100;-42
2022/01/19 06:35:20;;;;;;;24.38;16.50;;;4.20;99.90;;;;;;5006787;28;20120;-43
2022/01/19 06:37:46;;;;;;;27.25;17.52;;;4.20;99.90;;;;;;5007295;28;20033;-43
2022/01/19 06:40:14;;;;;;;29.13;18.00;;;4.20;99.90;;;;;;5006338;28;20030;-43
2022/01/19 06:42:40;;;;;;;26.45;17.00;;;4.20;99.90;;;;;;5003326;28;20038;-43
2022/01/19 06:45:06;;;;;;;27.88;17.88;;;4.20;99.90;;;;;;5007589;28;20076;-43
2022/01/19 06:47:32;;;;;;;34.22;20.40;;;4.10;99.90;;;;;;5007395;28;20095;-43
2022/01/19 06:49:58;;;;;;;34.13;20.63;;;4.10;99.90;;;;;;5006735;28;20482;-43
2022/01/19 06:52:23;;;;;;;36.72;22.77;;;4.10;99.90;;;;;;5007455;28;20025;-42
2022/01/19 06:54:49;;;;;;;33.58;20.50;;;4.10;99.90;;;;;;5006519;28;20041;-43
2022/01/19 06:57:15;;;;;;;52.15;26.55;;;4.00;99.90;;;;;;5006917;28;20030;-44
2022/01/19 06:59:40;;;;;;;43.40;24.60;;;4.00;99.90;;;;;;4999146;28;20529;-43
2022/01/19 07:02:06;;;;;;;48.28;24.65;;;4.00;99.90;;;;;;5005411;28;20036;-43
2022/01/19 07:04:32;;;;;;;44.75;24.92;;;3.90;99.90;;;;;;5003420;28;20034;-44
2022/01/19 07:06:58;;;;;;;52.03;28.15;;;3.90;99.90;;;;;;5005873;28;20026;-43
2022/01/19 07:09:23;;;;;;;47.67;27.40;;;3.90;99.90;;;;;;5005468;28;20029;-43
2022/01/19 07:11:49;;;;;;;52.75;27.10;;;3.90;99.90;;;;;;5005999;28;20061;-43
2022/01/19 07:14:17;;;;;;;50.92;27.63;;;3.90;99.90;;;;;;5006198;28;20021;-44
2022/01/19 07:16:43;;;;;;;47.33;25.75;;;3.90;99.90;;;;;;5005848;28;20129;-43
2022/01/19 07:19:10;;;;;;;50.75;27.65;;;3.90;99.90;;;;;;5002018;28;20393;-43
2022/01/19 07:21:36;;;;;;;52.15;27.92;;;3.90;99.90;;;;;;5006356;28;20029;-43
2022/01/19 07:24:02;;;;;;;51.58;28.38;;;3.80;99.90;;;;;;5004996;28;20091;-43
2022/01/19 07:26:27;;;;;;;51.22;28.73;;;3.80;99.90;;;;;;5005870;28;20026;-42
2022/01/19 07:28:53;;;;;;;46.53;26.65;;;3.80;99.90;;;;;;5005818;28;20041;-43
2022/01/19 07:31:18;;;;;;;51.55;28.15;;;3.80;99.90;;;;;;5005941;28;20126;-42
2022/01/19 07:33:44;;;;;;;52.92;28.92;;;3.80;99.90;;;;;;5005490;28;20057;-44
2022/01/19 07:36:10;;;;;;;53.65;29.05;;;3.80;99.90;;;;;;5005965;28;20084;-44
2022/01/19 07:38:35;;;;;;;49.05;26.70;;;3.80;99.90;;;;;;5004559;28;20121;-42
2022/01/19 07:41:01;;;;;;;47.08;25.75;;;3.80;99.90;;;;;;5002129;28;20544;-44
2022/01/19 07:43:26;;;;;;;43.38;23.17;;;3.90;99.90;;;;;;4997142;28;20037;-43
2022/01/19 07:45:52;;;;;;;45.28;25.35;;;3.90;99.90;;;;;;5006810;28;20481;-42
2022/01/19 07:48:17;;;;;;;49.30;26.83;;;3.90;99.90;;;;;;5011164;28;20019;-44
2022/01/19 07:50:43;;;;;;;45.25;25.27;;;3.90;99.90;;;;;;5010548;28;20535;-43
2022/01/19 07:53:09;;;;;;;46.25;26.73;;;3.90;99.90;;;;;;5010146;28;20397;-43
2022/01/19 07:55:34;;;;;;;46.10;25.50;;;3.90;99.90;;;;;;5009654;28;20042;-43
2022/01/19 07:58:01;;;;;;;48.15;25.60;;;3.90;99.90;;;;;;5011043;28;20084;-43
2022/01/19 08:00:27;;;;;;;53.65;28.50;;;3.90;99.90;;;;;;5009675;28;20030;-42
2022/01/19 08:02:53;;;;;;;50.03;28.13;;;3.90;99.90;;;;;;5000980;28;20044;-44
2022/01/19 08:05:19;;;;;;;50.78;27.63;;;3.90;99.90;;;;;;5010755;28;20040;-43
2022/01/19 08:07:44;;;;;;;49.15;27.05;;;3.90;99.90;;;;;;5009308;28;20044;-43
2022/01/19 08:10:12;;;;;;;43.10;25.65;;;3.90;99.90;;;;;;5010422;28;20080;-42
2022/01/19 08:12:38;;;;;;;46.58;25.33;;;3.90;99.90;;;;;;5009605;28;20477;-44
2022/01/19 08:15:05;;;;;;;51.85;28.23;;;3.90;99.90;;;;;;5010547;28;20036;-43
2022/01/19 08:17:31;;;;;;;54.65;29.20;;;4.00;99.90;;;;;;5009446;28;20493;-43
2022/01/19 08:19:57;;;;;;;48.90;29.85;;;3.90;99.90;;;;;;5009168;28;20068;-42
2022/01/19 08:22:23;;;;;;;47.50;27.10;;;3.90;99.90;;;;;;5009697;28;20022;-43
2022/01/19 08:24:50;;;;;;;49.97;26.95;;;3.90;99.90;;;;;;5009839;28;20065;-42
2022/01/19 08:27:15;;;;;;;48.53;27.48;;;3.90;99.90;;;;;;5008935;28;20541;-43
2022/01/19 08:29:41;;;;;;;55.50;29.98;;;3.90;99.90;;;;;;5009593;28;20149;-43
2022/01/19 08:32:07;;;;;;;55.30;31.40;;;3.90;99.90;;;;;;5009527;28;20057;-43
2022/01/19 08:34:33;;;;;;;50.83;28.45;;;3.90;99.90;;;;;;5008902;28;20030;-43
2022/01/19 08:37:00;;;;;;;50.20;29.30;;;3.90;99.90;;;;;;5009521;28;20386;-44
2022/01/19 08:39:25;;;;;;;48.38;27.45;;;4.00;99.90;;;;;;5009753;28;20504;-42
2022/01/19 08:41:52;;;;;;;45.60;27.38;;;4.00;99.90;;;;;;5009170;28;20136;-42
2022/01/19 08:44:18;;;;;;;51.95;29.00;;;3.90;99.90;;;;;;5009234;28;20037;-42
2022/01/19 08:46:44;;;;;;;45.92;27.10;;;3.90;99.90;;;;;;5009286;28;20386;-44
2022/01/19 08:49:10;;;;;;;42.75;25.77;;;4.00;99.90;;;;;;5008735;28;20556;-43
2022/01/19 08:51:36;;;;;;;40.03;23.30;;;4.00;99.90;;;;;;5008816;28;20057;-43
2022/01/19 08:54:03;;;;;;;38.75;23.40;;;4.00;99.90;;;;;;5008577;28;20653;-43
2022/01/19 08:56:29;;;;;;;39.72;22.95;;;4.00;99.90;;;;;;5007865;28;20508;-43
2022/01/19 08:58:54;;;;;;;40.60;24.98;;;4.00;99.90;;;;;;5008375;28;20013;-43
2022/01/19 09:01:20;;;;;;;41.72;25.27;;;4.10;99.90;;;;;;5008707;28;20450;-43
2022/01/19 09:03:46;;;;;;;41.70;25.00;;;4.10;99.90;;;;;;5007198;28;20037;-43
2022/01/19 09:06:11;;;;;;;40.63;25.83;;;4.10;99.90;;;;;;5009439;28;20026;-43
2022/01/19 09:08:37;;;;;;;41.38;25.10;;;4.10;99.90;;;;;;5007603;28;20022;-42
2022/01/19 09:11:02;;;;;;;43.83;27.77;;;4.10;99.90;;;;;;5008111;28;20366;-42
2022/01/19 09:13:28;;;;;;;44.72;28.20;;;4.10;99.90;;;;;;5008794;28;20425;-43
2022/01/19 09:15:54;;;;;;;45.15;25.98;;;4.10;99.90;;;;;;5006171;28;20018;-43
2022/01/19 09:18:20;;;;;;;39.33;25.67;;;4.10;99.90;;;;;;5008475;28;20026;-43
2022/01/19 09:20:46;;;;;;;45.28;26.77;;;4.10;99.90;;;;;;5009032;28;20045;-44
2022/01/19 09:23:13;;;;;;;42.33;26.90;;;4.10;99.90;;;;;;5007815;28;20121;-42
2022/01/19 09:25:40;;;;;;;43.72;28.63;;;4.10;99.90;;;;;;5008839;28;20053;-42
2022/01/19 09:28:07;;;;;;;47.60;29.02;;;4.10;99.90;;;;;;5008499;28;20523;-43
2022/01/19 09:30:33;;;;;;;43.97;26.92;;;4.20;99.90;;;;;;5007769;28;20049;-42
2022/01/19 09:33:07;;;;;;;42.83;25.67;;;4.20;99.90;;;;;;5008358;28;20080;-43
2022/01/19 09:38:21;;;;;;;35.40;23.25;;;4.20;99.90;;;;;;5006550;28;20117;-44
2022/01/19 09:40:47;;;;;;;35.42;23.55;;;4.30;99.90;;;;;;5004866;28;20025;-43
2022/01/19 09:43:13;;;;;;;43.63;25.83;;;4.30;99.90;;;;;;5008803;28;20038;-43
2022/01/19 09:45:39;;;;;;;42.83;26.10;;;4.30;99.90;;;;;;5005995;28;20030;-44
2022/01/19 09:48:05;;;;;;;40.80;25.83;;;4.30;99.90;;;;;;4988566;28;20042;-43
2022/01/19 09:50:31;;;;;;;40.53;25.55;;;4.40;99.90;;;;;;5005388;28;20061;-43
2022/01/19 09:52:57;;;;;;;43.55;26.80;;;4.40;99.90;;;;;;5007710;28;20601;-43
2022/01/19 09:55:22;;;;;;;40.13;24.70;;;4.40;99.90;;;;;;5008014;28;20517;-43
2022/01/19 09:57:48;;;;;;;35.42;22.73;;;4.40;99.90;;;;;;5008517;28;20409;-44
2022/01/19 10:00:14;;;;;;;35.70;23.35;;;4.40;99.90;;;;;;5007502;28;20025;-43
2022/01/19 10:02:39;;;;;;;34.13;22.52;;;4.50;99.90;;;;;;5008000;28;20716;-43
2022/01/19 10:05:08;;;;;;;30.15;21.10;;;4.50;99.90;;;;;;5007930;28;20029;-42
2022/01/19 10:07:35;;;;;;;35.15;21.95;;;4.50;99.90;;;;;;5007980;28;20033;-43
2022/01/19 10:10:01;;;;;;;31.08;21.33;;;4.50;99.90;;;;;;5007242;28;20021;-42
2022/01/19 10:18:12;;;;;;;36.08;23.75;;;4.60;99.90;;;;;;5007960;28;20545;-43
2022/01/19 10:20:38;;;;;;;36.30;25.15;;;4.60;99.90;;;;;;5006801;28;20416;-42
2022/01/19 10:23:03;;;;;;;37.47;23.80;;;4.60;99.90;;;;;;5007945;28;20026;-42
2022/01/19 10:25:51;;;;;;;34.45;22.48;;;4.60;99.90;;;;;;5007481;28;20087;-44
2022/01/19 10:28:16;;;;;;;35.00;22.33;;;4.60;99.90;;;;;;5007455;28;20029;-43
2022/01/19 10:30:42;;;;;;;38.00;23.42;;;4.60;99.90;;;;;;5007504;28;20025;-43
2022/01/19 10:33:08;;;;;;;33.72;22.38;;;4.60;99.90;;;;;;5007824;28;20612;-43
2022/01/19 10:35:37;;;;;;;33.42;22.20;;;4.70;99.90;;;;;;5006197;28;20109;-43
2022/01/19 10:38:20;;;;;;;34.30;21.73;;;4.70;99.90;;;;;;5007447;28;20033;-43
2022/01/19 10:40:58;;;;;;;32.67;21.38;;;4.80;99.90;;;;;;5007441;28;20045;-43
2022/01/19 10:43:29;;;;;;;31.08;21.02;;;4.80;99.90;;;;;;4997188;28;20038;-43
2022/01/19 10:45:57;;;;;;;32.22;21.42;;;4.90;99.90;;;;;;5006753;28;20531;-43
2022/01/19 10:48:36;;;;;;;35.22;22.33;;;4.90;99.90;;;;;;5006668;28;20465;-43
2022/01/19 10:51:16;;;;;;;33.40;21.52;;;4.90;99.90;;;;;;5007806;28;20022;-43
2022/01/19 10:53:44;;;;;;;35.60;23.08;;;4.80;99.90;;;;;;4996834;28;20040;-44
2022/01/19 10:56:28;;;;;;;35.08;22.63;;;4.80;99.90;;;;;;5006341;28;20425;-44
2022/01/19 10:58:58;;;;;;;;;;;4.80;99.90;;;;;;4997365;28;20084;-43
2022/01/19 11:01:38;;;;;;;33.47;22.85;;;4.80;99.90;;;;;;5007384;28;19905;-43
2022/01/19 11:04:22;;;;;;;34.22;21.30;;;4.80;99.90;;;;;;4996856;28;20033;-43
2022/01/19 11:06:51;;;;;;;32.97;22.00;;;4.80;99.90;;;;;;5006942;28;20477;-43
2022/01/19 11:09:19;;;;;;;33.22;22.02;;;4.80;99.90;;;;;;5007207;28;20030;-42
2022/01/19 11:11:44;;;;;;;33.78;22.45;;;4.80;99.90;;;;;;5006793;28;20022;-43
2022/01/19 11:14:15;;;;;;;37.10;23.75;;;4.80;99.90;;;;;;5007301;28;20034;-43
2022/01/19 11:16:42;;;;;;;35.50;23.73;;;4.90;99.90;;;;;;5005977;28;20026;-43
2022/01/19 11:19:08;;;;;;;33.80;22.20;;;4.90;99.90;;;;;;5006944;28;20034;-42
2022/01/19 11:21:46;;;;;;;31.25;21.02;;;4.90;99.90;;;;;;5013117;28;20506;-41
2022/01/19 11:24:42;;;;;;;35.08;23.17;;;4.90;99.90;;;;;;5012275;28;20038;-43
2022/01/19 11:27:08;;;;;;;36.38;24.00;;;4.90;99.90;;;;;;5019279;28;20121;-43
2022/01/19 11:29:34;;;;;;;31.85;22.10;;;4.90;99.90;;;;;;5013251;28;20033;-41
2022/01/19 11:32:19;;;;;;;34.45;23.23;;;4.90;99.90;;;;;;5013821;28;20492;-43
2022/01/19 11:34:50;;;;;;;37.53;23.48;;;5.00;99.90;;;;;;5013217;28;20029;-44
2022/01/19 11:37:43;;;;;;;35.90;23.53;;;5.00;99.90;;;;;;5013071;28;20508;-44
2022/01/19 11:40:15;;;;;;;38.85;24.80;;;5.10;99.90;;;;;;5012863;28;20033;-43
2022/01/19 11:42:41;;;;;;;37.92;25.08;;;5.10;99.90;;;;;;5013536;28;20025;-43
2022/01/19 11:45:28;;;;;;;38.25;25.70;;;5.10;99.90;;;;;;5012015;28;20830;-42
2022/01/19 11:48:16;;;;;;;36.20;23.15;;;5.10;99.90;;;;;;5012726;28;20022;-43
2022/01/19 11:50:42;;;;;;;44.13;26.42;;;5.10;99.90;;;;;;5002863;28;20026;-43
2022/01/19 11:53:10;;;;;;;39.53;25.50;;;5.10;99.90;;;;;;5013068;28;20044;-42
2022/01/19 11:55:37;;;;;;;36.47;23.33;;;5.10;99.90;;;;;;5013427;28;20125;-43
2022/01/19 11:58:20;;;;;;;41.22;26.20;;;5.10;99.90;;;;;;5012115;28;20054;-42
2022/01/19 12:00:48;;;;;;;37.85;24.95;;;5.20;99.90;;;;;;5013366;28;20075;-44
2022/01/19 12:03:19;;;;;;;36.85;24.90;;;5.20;99.90;;;;;;5013374;28;20374;-43
2022/01/19 12:05:45;;;;;;;33.97;22.40;;;5.10;99.90;;;;;;5012507;28;20026;-43
2022/01/19 12:08:22;;;;;;;39.97;24.67;;;5.20;99.90;;;;;;5013331;28;20076;-42
2022/01/19 12:10:51;;;;;;;33.05;23.70;;;5.20;99.90;;;;;;5013637;28;20030;-42
2022/01/19 12:19:05;;;;;;;36.33;23.15;;;5.20;99.90;;;;;;5012308;28;20485;-43
2022/01/19 12:21:31;;;;;;;35.10;24.17;;;5.30;99.90;;;;;;5013326;28;20034;-43
2022/01/19 12:24:32;;;;;;;33.90;22.83;;;5.30;99.90;;;;;;5012736;28;20108;-42
2022/01/19 12:27:15;;;;;;;35.47;25.00;;;5.30;99.90;;;;;;5002137;28;20133;-42
2022/01/19 12:30:01;;;;;;;36.22;23.73;;;5.40;99.90;;;;;;5013073;28;20030;-42
2022/01/19 12:32:26;;;;;;;36.97;24.58;;;5.40;99.90;;;;;;5011150;28;20021;-42
2022/01/19 12:35:06;;;;;;;42.03;26.70;;;5.50;99.90;;;;;;5008711;28;20026;-43
2022/01/19 12:37:34;;;;;;;36.40;24.40;;;5.50;99.90;;;;;;5009366;28;20032;-42
2022/01/19 12:40:16;;;;;;;32.35;23.15;;;5.60;99.90;;;;;;5009316;28;20038;-43
2022/01/19 12:42:45;;;;;;;38.33;26.65;;;5.60;99.90;;;;;;5009635;28;20025;-44
2022/01/19 12:45:33;;;;;;;42.03;28.48;;;5.60;99.90;;;;;;5009282;28;20026;-43
2022/01/19 12:48:03;;;;;;;44.28;28.90;;;5.60;99.90;;;;;;5008471;28;20030;-42
2022/01/19 12:50:44;;;;;;;40.78;27.88;;;5.60;99.90;;;;;;5009790;28;20026;-43
2022/01/19 12:53:17;;;;;;;39.63;25.00;;;5.60;99.90;;;;;;5009367;28;20448;-43
2022/01/19 12:55:47;;;;;;;40.95;26.45;;;5.70;99.90;;;;;;5008361;28;20045;-43
2022/01/19 12:58:26;;;;;;;38.35;26.77;;;5.70;99.90;;;;;;5008973;28;20491;-43
2022/01/19 13:00:55;;;;;;;37.53;25.58;;;5.70;99.90;;;;;;5009976;28;20018;-43
2022/01/19 13:03:27;;;;;;;38.13;26.00;;;5.70;99.90;;;;;;5009563;28;20034;-43
2022/01/19 13:06:00;;;;;;;36.30;25.48;;;5.70;99.90;;;;;;5009605;28;20508;-42
2022/01/19 13:08:29;;;;;;;38.15;26.02;;;5.80;99.90;;;;;;5008824;28;20033;-43
2022/01/19 13:11:02;;;;;;;40.65;26.08;;;5.80;99.90;;;;;;5009830;28;20374;-43
2022/01/19 13:13:29;;;;;;;40.55;28.45;;;5.80;99.90;;;;;;4999901;28;20025;-42
2022/01/19 13:16:02;;;;;;;44.63;27.80;;;5.90;99.90;;;;;;5009309;28;20092;-43
2022/01/19 13:18:37;;;;;;;45.90;28.13;;;5.80;99.90;;;;;;5009312;28;20034;-44
2022/01/19 13:21:06;;;;;;;40.22;27.10;;;5.80;99.90;;;;;;4995929;28;20465;-44
2022/01/19 13:23:37;;;;;;;40.25;27.23;;;5.80;99.90;;;;;;5006163;28;20736;-43
2022/01/19 13:26:12;;;;;;;39.92;26.70;;;5.80;99.90;;;;;;5003980;28;20056;-43
2022/01/19 13:28:37;;;;;;;42.03;28.85;;;5.80;99.90;;;;;;5009534;28;20053;-43
2022/01/19 13:31:11;;;;;;;40.25;28.95;;;5.80;99.90;;;;;;5008903;28;20108;-43
2022/01/19 13:33:37;;;;;;;42.90;29.45;;;5.80;99.90;;;;;;5005901;28;20544;-44
2022/01/19 13:36:04;;;;;;;41.80;28.60;;;5.80;99.90;;;;;;5008657;28;20481;-44
2022/01/19 13:38:30;;;;;;;42.60;28.23;;;5.80;99.90;;;;;;5009180;28;20049;-43
2022/01/19 13:41:07;;;;;;;41.67;27.30;;;5.80;99.90;;;;;;5007412;28;20025;-42
2022/01/19 13:43:35;;;;;;;44.22;28.88;;;5.80;99.90;;;;;;5007815;28;20045;-43
2022/01/19 13:46:12;;;;;;;41.38;28.80;;;5.80;99.90;;;;;;5009396;28;20061;-43
2022/01/19 13:48:38;;;;;;;48.70;30.70;;;5.80;99.90;;;;;;5009292;28;20037;-43
2022/01/19 13:51:06;;;;;;;39.63;26.83;;;5.80;99.90;;;;;;5008172;28;20033;-43
2022/01/19 13:53:46;;;;;;;40.17;27.73;;;5.80;99.90;;;;;;5009037;28;20022;-43
2022/01/19 13:56:15;;;;;;;41.15;28.63;;;5.80;99.90;;;;;;4989608;28;20061;-44
2022/01/19 13:58:48;;;;;;;43.20;28.52;;;5.80;99.90;;;;;;5003617;28;20107;-43
2022/01/19 14:01:19;;;;;;;;;;;5.80;99.90;;;;;;5009297;28;20022;-43
2022/01/19 14:03:46;;;;;;;47.28;29.88;;;5.80;99.90;;;;;;5009227;28;19913;-46
2022/01/19 14:06:23;;;;;;;42.70;27.88;;;5.70;99.90;;;;;;5007753;28;20492;-43
2022/01/19 14:09:18;;;;;;;42.78;28.65;;;5.70;99.90;;;;;;5008965;28;20049;-43
2022/01/19 14:12:02;;;;;;;40.30;27.25;;;5.80;99.90;;;;;;4988705;28;20069;-42
2022/01/19 14:14:38;;;;;;;42.13;29.23;;;5.80;99.90;;;;;;5006336;28;20029;-42
2022/01/19 14:17:28;;;;;;;41.28;27.50;;;5.80;99.90;;;;;;5008821;28;20118;-43
2022/01/19 14:19:54;;;;;;;43.20;28.80;;;5.80;99.90;;;;;;5003869;28;20056;-43
2022/01/19 14:22:19;;;;;;;44.47;29.45;;;5.80;99.90;;;;;;5008883;28;20030;-42